createdAt,value
2019-04-06T00:01:13.248Z,59.97
2019-04-06T00:03:39.960Z,59.10
2019-04-06T00:06:06.476Z,62.37
2019-04-06T00:08:33.028Z,57.57
2019-04-06T00:10:59.517Z,59.00
2019-04-06T00:13:26.031Z,59.10
2019-04-06T00:15:52.998Z,58.77
2019-04-06T00:18:19.468Z,56.80
2019-04-06T00:20:45.959Z,57.20
2019-04-06T00:23:12.676Z,56.47
2019-04-06T00:25:44.592Z,55.10
2019-04-06T00:28:09.178Z,57.20
2019-04-06T00:30:45.430Z,55.07
2019-04-06T00:33:14.278Z,60.03
2019-04-06T00:35:41.028Z,56.97
2019-04-06T00:38:07.938Z,57.93
2019-04-06T00:40:34.457Z,56.40
2019-04-06T00:43:01.063Z,59.10
2019-04-06T00:45:27.595Z,56.33
2019-04-06T00:47:56.099Z,57.40
2019-04-06T00:50:22.796Z,56.17
2019-04-06T00:52:49.390Z,56.67
2019-04-06T00:55:27.466Z,60.60
2019-04-06T00:57:53.979Z,58.13
2019-04-06T01:00:20.857Z,61.47
2019-04-06T01:02:47.404Z,59.10
2019-04-06T01:05:14.066Z,56.43
2019-04-06T01:07:40.620Z,57.90
2019-04-06T01:10:07.428Z,59.33
2019-04-06T01:12:33.966Z,58.23
2019-04-06T01:15:00.738Z,57.40
2019-04-06T01:17:27.495Z,60.77
2019-04-06T01:19:54.087Z,61.03
2019-04-06T01:22:20.953Z,56.67
2019-04-06T01:24:47.441Z,59.33
2019-04-06T01:27:14.994Z,57.63
2019-04-06T01:29:41.646Z,61.20
2019-04-06T01:32:08.299Z,60.40
2019-04-06T01:34:35.037Z,60.17
2019-04-06T01:37:01.888Z,59.83
2019-04-06T01:39:28.368Z,61.40
2019-04-06T01:41:54.957Z,65.13
2019-04-06T01:44:21.442Z,63.33
2019-04-06T01:46:47.916Z,60.17
2019-04-06T01:49:14.763Z,59.97
2019-04-06T01:51:41.256Z,64.13
2019-04-06T01:54:07.814Z,63.57
2019-04-06T01:56:34.278Z,64.97
2019-04-06T01:59:00.889Z,62.20
2019-04-06T02:01:31.621Z,65.43
2019-04-06T02:03:58.406Z,64.60
2019-04-06T02:06:24.961Z,64.23
2019-04-06T02:08:51.490Z,63.43
2019-04-06T02:11:18.000Z,67.83
2019-04-06T02:13:44.510Z,63.73
2019-04-06T02:16:11.013Z,63.83
2019-04-06T02:18:37.535Z,63.73
2019-04-06T02:21:04.042Z,64.90
2019-04-06T02:23:30.509Z,68.53
2019-04-06T02:25:57.351Z,64.23
2019-04-06T02:28:23.848Z,64.73
2019-04-06T02:31:10.083Z,65.43
2019-04-06T02:33:53.940Z,65.63
2019-04-06T02:36:42.040Z,64.33
2019-04-06T02:39:15.013Z,64.83
2019-04-06T02:41:44.387Z,63.40
2019-04-06T02:44:10.885Z,66.50
2019-04-06T02:46:37.753Z,67.93
2019-04-06T02:49:04.337Z,66.63
2019-04-06T02:51:31.347Z,64.57
2019-04-06T02:53:58.151Z,64.87
2019-04-06T02:56:24.738Z,65.90
2019-04-06T02:58:51.653Z,64.53
2019-04-06T03:01:18.288Z,65.13
2019-04-06T03:03:44.766Z,62.63
2019-04-06T03:06:11.579Z,65.60
2019-04-06T03:08:38.312Z,63.33
2019-04-06T03:11:04.812Z,61.93
2019-04-06T03:13:31.511Z,61.40
2019-04-06T03:15:58.476Z,60.17
2019-04-06T03:18:25.156Z,62.00
2019-04-06T03:20:51.850Z,56.50
2019-04-06T03:23:18.431Z,62.00
2019-04-06T03:25:45.084Z,58.63
2019-04-06T03:28:11.861Z,55.80
2019-04-06T03:30:38.452Z,57.47
2019-04-06T03:33:05.112Z,56.80
2019-04-06T03:35:31.650Z,57.67
2019-04-06T03:37:58.248Z,56.47
2019-04-06T03:40:25.084Z,55.70
2019-04-06T03:42:51.629Z,54.43
2019-04-06T03:45:18.180Z,54.10
2019-04-06T03:47:44.801Z,54.83
2019-04-06T03:50:13.738Z,53.53
2019-04-06T03:52:40.667Z,54.33
2019-04-06T03:55:07.399Z,53.03
2019-04-06T03:57:33.896Z,52.20
2019-04-06T04:00:01.039Z,55.03
2019-04-06T04:02:28.767Z,50.23
2019-04-06T04:04:55.310Z,52.73
2019-04-06T04:07:21.840Z,49.20
2019-04-06T04:09:48.593Z,49.17
2019-04-06T04:12:15.233Z,51.80
2019-04-06T04:14:41.945Z,50.67
2019-04-06T04:17:08.428Z,48.53
2019-04-06T04:19:35.326Z,49.37
2019-04-06T04:22:01.884Z,49.00
2019-04-06T04:24:28.509Z,47.30
2019-04-06T04:26:55.455Z,49.57
2019-04-06T04:29:21.944Z,48.33
2019-04-06T04:31:49.156Z,47.23
2019-04-06T04:34:16.011Z,45.37
2019-04-06T04:36:42.525Z,45.37
2019-04-06T04:39:09.101Z,47.13
2019-04-06T04:41:35.617Z,47.00
2019-04-06T04:44:02.332Z,47.37
2019-04-06T04:46:29.164Z,44.77
2019-04-06T04:48:56.063Z,48.03
2019-04-06T04:51:22.755Z,53.07
2019-04-06T04:53:49.435Z,53.40
2019-04-06T04:56:16.148Z,55.30
2019-04-06T04:58:42.780Z,53.83
2019-04-06T05:01:11.351Z,53.07
2019-04-06T05:03:37.947Z,52.90
2019-04-06T05:06:04.479Z,51.07
2019-04-06T05:08:30.988Z,51.00
2019-04-06T05:10:57.897Z,49.40
2019-04-06T05:13:24.914Z,47.87
2019-04-06T05:16:20.169Z,49.60
2019-04-06T05:18:46.772Z,48.97
2019-04-06T05:21:13.423Z,44.93
2019-04-06T05:23:44.060Z,41.23
2019-04-06T05:26:10.562Z,38.30
2019-04-06T05:28:37.098Z,38.43
2019-04-06T05:31:03.744Z,35.90
2019-04-06T05:33:30.490Z,38.87
2019-04-06T05:35:57.086Z,39.33
2019-04-06T05:38:23.675Z,38.23
2019-04-06T05:40:50.894Z,39.27
2019-04-06T05:43:17.826Z,39.93
2019-04-06T05:45:44.419Z,42.97
2019-04-06T05:48:11.217Z,40.80
2019-04-06T05:50:37.766Z,40.67
2019-04-06T05:53:04.339Z,39.63
2019-04-06T05:55:31.018Z,39.07
2019-04-06T05:58:03.751Z,39.17
2019-04-06T06:00:26.386Z,40.63
2019-04-06T06:02:53.013Z,41.90
2019-04-06T06:05:19.708Z,44.30
2019-04-06T06:07:46.250Z,40.10
2019-04-06T06:10:14.007Z,41.30
2019-04-06T06:12:41.391Z,42.83
2019-04-06T06:15:08.222Z,42.37
2019-04-06T06:17:36.414Z,39.57
2019-04-06T06:20:03.375Z,39.40
2019-04-06T06:22:30.235Z,37.87
2019-04-06T06:24:57.476Z,39.60
2019-04-06T06:27:24.375Z,39.13
2019-04-06T06:29:51.068Z,39.27
2019-04-06T06:32:17.697Z,37.60
2019-04-06T06:34:44.452Z,37.47
2019-04-06T06:37:11.293Z,38.83
2019-04-06T06:40:36.957Z,37.00
2019-04-06T06:43:06.516Z,35.20
2019-04-06T06:45:33.034Z,34.63
2019-04-06T06:48:02.177Z,33.67
2019-04-06T06:50:30.139Z,35.10
2019-04-06T06:52:57.103Z,32.17
2019-04-06T06:55:23.721Z,33.10
2019-04-06T06:57:50.337Z,34.07
2019-04-06T07:00:17.296Z,33.63
2019-04-06T07:02:45.899Z,35.40
2019-04-06T07:05:12.812Z,32.00
2019-04-06T07:07:39.516Z,35.33
2019-04-06T07:10:06.554Z,34.00
2019-04-06T07:12:33.169Z,33.47
2019-04-06T07:14:59.999Z,34.30
2019-04-06T07:17:26.871Z,33.23
2019-04-06T07:19:53.887Z,31.87
2019-04-06T07:22:23.152Z,34.13
2019-04-06T07:24:50.360Z,35.20
2019-04-06T07:27:16.980Z,34.87
2019-04-06T07:29:43.508Z,34.87
2019-04-06T07:32:10.134Z,32.77
2019-04-06T07:34:36.812Z,36.37
2019-04-06T07:37:03.876Z,33.10
2019-04-06T07:39:30.641Z,33.00
2019-04-06T07:41:57.277Z,35.03
2019-04-06T07:44:23.975Z,34.47
2019-04-06T07:46:50.955Z,34.87
2019-04-06T07:49:17.526Z,35.67
2019-04-06T07:51:44.208Z,34.83
2019-04-06T07:54:10.985Z,32.57
2019-04-06T07:56:37.952Z,33.50
2019-04-06T07:59:04.484Z,35.33
2019-04-06T08:01:31.285Z,32.40
2019-04-06T08:03:58.122Z,32.97
2019-04-06T08:06:25.156Z,34.17
2019-04-06T08:08:52.404Z,32.33
2019-04-06T08:11:19.303Z,31.97
2019-04-06T08:13:46.340Z,32.13
2019-04-06T08:16:13.323Z,30.93
2019-04-06T08:18:39.940Z,29.67
2019-04-06T08:21:06.529Z,30.60
2019-04-06T08:23:33.224Z,29.50
2019-04-06T08:25:59.841Z,29.90
2019-04-06T08:28:26.531Z,28.77
2019-04-06T08:30:57.517Z,27.27
2019-04-06T08:33:24.090Z,28.00
2019-04-06T08:35:50.816Z,30.87
2019-04-06T08:38:17.443Z,30.40
2019-04-06T08:40:44.672Z,32.17
2019-04-06T08:43:11.210Z,31.73
2019-04-06T08:45:37.747Z,31.10
2019-04-06T08:48:05.630Z,32.67
2019-04-06T08:50:33.461Z,31.87
2019-04-06T08:53:00.199Z,34.47
2019-04-06T08:55:27.087Z,32.37
2019-04-06T08:57:53.833Z,31.57
2019-04-06T09:00:20.851Z,30.90
2019-04-06T09:02:47.434Z,32.27
2019-04-06T09:05:14.665Z,34.57
2019-04-06T09:07:41.188Z,31.67
2019-04-06T09:10:08.579Z,32.63
2019-04-06T09:12:35.107Z,32.90
2019-04-06T09:15:01.873Z,32.43
2019-04-06T09:17:28.510Z,30.33
2019-04-06T09:19:55.121Z,30.30
2019-04-06T09:22:21.873Z,32.33
2019-04-06T09:24:48.385Z,29.90
2019-04-06T09:27:14.896Z,31.67
2019-04-06T09:29:41.640Z,31.13
2019-04-06T09:32:10.926Z,30.03
2019-04-06T09:34:37.697Z,32.83
2019-04-06T09:37:04.222Z,33.47
2019-04-06T09:39:30.785Z,32.33
2019-04-06T09:41:58.360Z,32.83
2019-04-06T09:44:45.711Z,32.40
2019-04-06T09:47:30.391Z,31.83
2019-04-06T09:50:31.783Z,32.77
2019-04-06T09:53:23.821Z,32.80
2019-04-06T09:56:10.079Z,32.00
2019-04-06T09:58:43.525Z,33.23
2019-04-06T10:01:38.138Z,31.80
2019-04-06T10:04:23.100Z,32.10
2019-04-06T10:07:09.289Z,31.00
2019-04-06T10:09:55.222Z,31.37
2019-04-06T10:12:49.297Z,31.03
2019-04-06T10:15:28.475Z,28.83
2019-04-06T10:18:15.036Z,31.17
2019-04-06T10:20:54.789Z,30.07
2019-04-06T10:23:34.008Z,30.00
2019-04-06T10:26:38.542Z,28.97
2019-04-06T10:29:17.396Z,29.03
2019-04-06T10:31:59.480Z,27.87
2019-04-06T10:34:45.752Z,27.20
2019-04-06T10:37:33.242Z,24.27
2019-04-06T10:40:12.401Z,23.37
2019-04-06T10:42:54.164Z,22.00
2019-04-06T10:45:30.875Z,25.10
2019-04-06T10:48:23.952Z,23.47
2019-04-06T10:51:08.880Z,22.50
2019-04-06T10:54:04.130Z,25.23
2019-04-06T10:56:44.837Z,23.27
2019-04-06T10:59:31.844Z,22.07
2019-04-06T11:02:22.520Z,12.07
2019-04-06T11:04:57.763Z,15.20
2019-04-06T11:07:30.387Z,15.60
2019-04-06T11:10:19.165Z,15.70
2019-04-06T11:12:53.606Z,19.70
2019-04-06T11:15:40.806Z,20.27
2019-04-06T11:18:25.488Z,19.60
2019-04-06T11:21:23.332Z,21.63
2019-04-06T11:24:04.131Z,21.30
2019-04-06T11:26:59.020Z,19.07
2019-04-06T11:29:32.326Z,20.10
2019-04-06T11:32:16.761Z,17.40
2019-04-06T11:34:58.968Z,18.73
2019-04-06T11:37:51.061Z,17.00
2019-04-06T11:40:34.862Z,17.77
2019-04-06T11:43:11.008Z,16.93
2019-04-06T11:45:48.964Z,16.00
2019-04-06T11:48:35.097Z,15.10
2019-04-06T11:51:24.026Z,16.40
2019-04-06T11:54:19.029Z,15.47
2019-04-06T11:57:03.531Z,17.33
2019-04-06T11:59:41.554Z,16.73
2019-04-06T12:02:27.962Z,18.50
2019-04-06T12:05:09.959Z,17.47
2019-04-06T12:07:49.945Z,15.57
2019-04-06T12:10:41.767Z,16.70
2019-04-06T12:13:36.653Z,18.97
2019-04-06T12:16:24.262Z,16.30
2019-04-06T12:19:07.927Z,14.23
2019-04-06T12:21:44.906Z,14.13
2019-04-06T12:24:28.607Z,11.70
2019-04-06T12:27:08.780Z,13.20
2019-04-06T12:29:52.038Z,14.73
2019-04-06T12:32:29.395Z,14.03
2019-04-06T12:35:14.160Z,14.70
2019-04-06T12:38:00.795Z,14.90
2019-04-06T12:40:35.073Z,15.37
2019-04-06T12:43:31.055Z,16.30
2019-04-06T12:46:20.258Z,16.73
2019-04-06T12:49:08.602Z,15.47
2019-04-06T12:51:43.425Z,13.93
2019-04-06T12:54:32.783Z,14.40
2019-04-06T12:57:21.872Z,14.77
2019-04-06T13:00:08.951Z,15.60
2019-04-06T13:02:55.353Z,15.93
2019-04-06T13:05:44.537Z,16.07
2019-04-06T13:08:22.032Z,16.83
2019-04-06T13:11:01.441Z,17.13
2019-04-06T13:16:31.737Z,16.67
2019-04-06T13:19:17.008Z,15.43
2019-04-06T13:22:01.985Z,15.13
2019-04-06T13:24:50.855Z,14.20
2019-04-06T13:27:41.023Z,13.00
2019-04-06T13:30:20.781Z,12.37
2019-04-06T13:33:01.418Z,12.50
2019-04-06T13:35:43.349Z,11.33
2019-04-06T13:38:22.508Z,10.80
2019-04-06T13:41:20.575Z,11.60
2019-04-06T13:43:54.876Z,11.27
2019-04-06T13:46:37.009Z,10.80
2019-04-06T13:49:09.938Z,10.47
2019-04-06T13:52:04.266Z,10.90
2019-04-06T13:54:48.915Z,10.20
2019-04-06T13:57:23.616Z,10.23
2019-04-06T14:00:10.420Z,9.57
2019-04-06T14:02:42.807Z,10.50
2019-04-06T14:05:28.055Z,10.10
2019-04-06T14:08:07.508Z,9.00
2019-04-06T14:10:52.133Z,9.67
2019-04-06T14:13:35.201Z,9.23
2019-04-06T14:16:27.923Z,10.83
2019-04-06T14:19:15.377Z,10.63
2019-04-06T14:22:01.411Z,9.77
2019-04-06T14:24:38.207Z,11.10
2019-04-06T14:27:27.399Z,10.93
2019-04-06T14:30:11.283Z,11.20
2019-04-06T14:32:57.048Z,9.93
2019-04-06T14:35:41.205Z,10.27
2019-04-06T14:38:26.833Z,9.97
2019-04-06T14:41:05.664Z,10.03
2019-04-06T14:43:48.982Z,10.97
2019-04-06T14:46:33.848Z,10.03
2019-04-06T14:49:31.264Z,9.13
2019-04-06T14:52:04.578Z,8.07
2019-04-06T14:54:50.972Z,9.47
2019-04-06T14:57:28.780Z,9.00
2019-04-06T15:00:11.352Z,10.20
2019-04-06T15:02:57.406Z,10.37
2019-04-06T15:05:44.094Z,10.30
2019-04-06T15:08:21.109Z,9.60
2019-04-06T15:11:01.066Z,10.20
2019-04-06T15:13:50.634Z,11.20
2019-04-06T15:16:23.920Z,10.87
2019-04-06T15:19:10.490Z,11.07
2019-04-06T15:22:14.876Z,11.03
2019-04-06T15:25:01.119Z,11.40
2019-04-06T15:27:37.366Z,13.33
2019-04-06T15:30:42.569Z,12.90
2019-04-06T15:33:35.292Z,14.47
2019-04-06T15:36:27.929Z,15.60
2019-04-06T15:39:14.174Z,17.20
2019-04-06T15:44:46.321Z,19.67
2019-04-06T15:47:38.676Z,20.27
2019-04-06T15:50:28.087Z,19.77
2019-04-06T15:53:17.293Z,19.90
2019-04-06T15:56:05.700Z,20.23
2019-04-06T15:58:57.954Z,22.27
2019-04-06T16:01:33.315Z,20.90
2019-04-06T16:04:26.434Z,20.37
2019-04-06T16:07:05.834Z,21.27
2019-04-06T16:09:58.139Z,20.57
2019-04-06T16:12:41.590Z,21.73
2019-04-06T16:15:33.844Z,22.60
2019-04-06T16:18:07.229Z,22.07
2019-04-06T16:20:48.934Z,22.27
2019-04-06T16:23:38.093Z,21.30
2019-04-06T16:26:20.290Z,22.90
2019-04-06T16:29:13.186Z,23.47
2019-04-06T16:31:57.896Z,24.93
2019-04-06T16:34:36.126Z,24.57
2019-04-06T16:37:10.190Z,22.53
2019-04-06T16:39:44.775Z,24.53
2019-04-06T16:42:31.402Z,25.43
2019-04-06T16:45:31.407Z,24.50
2019-04-06T16:48:35.072Z,24.50
2019-04-06T16:51:09.993Z,24.67
2019-04-06T16:54:14.609Z,23.60
2019-04-06T16:56:53.344Z,22.67
2019-04-06T16:59:30.859Z,21.93
2019-04-06T17:02:24.382Z,25.23
2019-04-06T17:05:06.644Z,24.23
2019-04-06T17:07:51.385Z,25.27
2019-04-06T17:10:35.819Z,24.97
2019-04-06T17:13:20.899Z,23.77
2019-04-06T17:16:05.692Z,24.17
2019-04-06T17:18:46.243Z,21.13
2019-04-06T17:21:38.151Z,22.33
2019-04-06T17:24:12.702Z,24.77
2019-04-06T17:27:02.122Z,22.80
2019-04-06T17:29:53.252Z,22.30
2019-04-06T17:32:38.343Z,21.16
2019-04-06T17:35:14.080Z,22.07
2019-04-06T17:38:02.896Z,23.80
2019-04-06T17:40:43.625Z,23.03
2019-04-06T17:43:35.166Z,24.00
2019-04-06T17:46:17.370Z,24.63
2019-04-06T17:48:55.114Z,22.37
2019-04-06T17:51:47.518Z,23.13
2019-04-06T17:54:38.741Z,21.57
2019-04-06T17:57:14.145Z,21.57
2019-04-06T17:59:59.546Z,21.97
2019-04-06T18:02:48.740Z,21.30
2019-04-06T18:05:30.897Z,20.40
2019-04-06T18:08:15.703Z,20.73
2019-04-06T18:11:07.865Z,20.93
2019-04-06T18:14:03.121Z,20.03
2019-04-06T18:16:33.193Z,18.23
2019-04-06T18:19:00.313Z,19.23
2019-04-06T18:21:27.228Z,17.90
2019-04-06T18:23:54.296Z,18.60
2019-04-06T18:26:21.390Z,17.80
2019-04-06T18:28:48.390Z,17.97
2019-04-06T18:31:37.264Z,19.43
2019-04-06T18:34:04.217Z,18.17
2019-04-06T18:36:48.391Z,19.63
2019-04-06T18:39:15.209Z,19.20
2019-04-06T18:41:41.701Z,19.23
2019-04-06T18:44:09.080Z,17.33
2019-04-06T18:46:35.637Z,16.90
2019-04-06T18:49:03.267Z,17.33
2019-04-06T18:51:29.944Z,18.27
2019-04-06T18:53:56.613Z,17.17
2019-04-06T18:56:23.510Z,15.63
2019-04-06T18:58:51.851Z,16.37
2019-04-06T19:01:18.618Z,16.90
2019-04-06T19:03:46.413Z,16.53
2019-04-06T19:06:12.934Z,15.87
2019-04-06T19:08:42.076Z,15.83
2019-04-06T19:11:08.636Z,16.07
2019-04-06T19:13:35.465Z,16.10
2019-04-06T19:16:02.055Z,15.87
2019-04-06T19:18:29.454Z,15.80
2019-04-06T19:20:56.512Z,15.43
2019-04-06T19:23:23.066Z,15.37
2019-04-06T19:25:49.981Z,17.23
2019-04-06T19:28:16.637Z,16.50
2019-04-06T19:30:43.184Z,16.27
2019-04-06T19:33:11.071Z,16.10
2019-04-06T19:35:38.447Z,14.50
2019-04-06T19:38:05.024Z,15.33
2019-04-06T19:40:31.939Z,16.20
2019-04-06T19:42:58.955Z,15.33
2019-04-06T19:45:25.925Z,15.40
2019-04-06T19:48:03.000Z,17.23
2019-04-06T19:50:29.646Z,14.87
2019-04-06T19:52:56.337Z,14.97
2019-04-06T19:55:23.261Z,14.83
2019-04-06T19:57:49.944Z,16.07
2019-04-06T20:00:16.856Z,15.57
2019-04-06T20:02:43.541Z,15.43
2019-04-06T20:05:10.526Z,14.97
2019-04-06T20:07:38.081Z,15.50
2019-04-06T20:10:05.406Z,15.47
2019-04-06T20:12:32.261Z,15.23
2019-04-06T20:14:58.847Z,15.53
2019-04-06T20:17:25.534Z,15.87
2019-04-06T20:19:52.052Z,15.13
2019-04-06T20:22:19.157Z,15.90
2019-04-06T20:24:46.036Z,15.33
2019-04-06T20:27:12.638Z,15.93
2019-04-06T20:29:40.791Z,15.00
2019-04-06T20:32:07.745Z,16.13
2019-04-06T20:34:34.509Z,14.20
2019-04-06T20:37:01.853Z,15.27
2019-04-06T20:39:28.539Z,15.37
2019-04-06T20:41:55.101Z,15.93
2019-04-06T20:44:22.235Z,15.73
2019-04-06T20:46:49.430Z,15.43
2019-04-06T20:49:16.470Z,15.83
2019-04-06T20:51:43.361Z,15.50
2019-04-06T20:54:10.734Z,16.40
2019-04-06T20:56:37.491Z,15.97
2019-04-06T20:59:07.579Z,15.17
2019-04-06T21:01:34.131Z,15.37
2019-04-06T21:04:02.775Z,15.37
2019-04-06T21:06:32.270Z,15.80
2019-04-06T21:09:00.298Z,15.87
2019-04-06T21:11:26.809Z,14.77
2019-04-06T21:13:53.893Z,15.17
2019-04-06T21:16:23.107Z,14.70
2019-04-06T21:19:01.395Z,14.77
2019-04-06T21:21:25.898Z,15.17
2019-04-06T21:23:52.974Z,16.47
2019-04-06T21:26:21.402Z,14.63
2019-04-06T21:28:48.755Z,14.53
2019-04-06T21:31:17.979Z,15.07
2019-04-06T21:34:14.381Z,16.23
2019-04-06T21:36:39.147Z,13.67
2019-04-06T21:39:06.332Z,16.67
2019-04-06T21:41:33.360Z,15.83
2019-04-06T21:44:02.340Z,15.80
2019-04-06T21:46:32.650Z,16.97
2019-04-06T21:49:05.506Z,17.20
2019-04-06T21:51:32.633Z,15.43
2019-04-06T21:54:01.376Z,16.33
2019-04-06T21:56:28.191Z,15.00
2019-04-06T21:59:06.621Z,15.77
2019-04-06T22:01:51.274Z,15.67
2019-04-06T22:04:25.972Z,16.10
2019-04-06T22:06:46.538Z,15.90
2019-04-06T22:09:32.354Z,15.80
2019-04-06T22:11:59.400Z,14.37
2019-04-06T22:14:37.570Z,14.60
2019-04-06T22:17:06.284Z,15.60
2019-04-06T22:19:33.254Z,14.93
2019-04-06T22:21:59.853Z,14.73
2019-04-06T22:24:29.444Z,15.60
2019-04-06T22:26:58.334Z,14.20
2019-04-06T22:29:29.823Z,14.33
2019-04-06T22:31:56.511Z,14.80
2019-04-06T22:34:34.850Z,15.03
2019-04-06T22:36:52.661Z,15.03
2019-04-06T22:39:20.321Z,14.83
2019-04-06T22:41:52.463Z,14.30
2019-04-06T22:44:19.222Z,15.07
2019-04-06T22:46:48.678Z,15.50
2019-04-06T22:49:16.101Z,14.57
2019-04-06T22:51:43.455Z,13.97
2019-04-06T22:54:43.594Z,14.90
2019-04-06T22:57:10.298Z,14.83
2019-04-06T22:59:41.545Z,14.30
2019-04-06T23:02:11.338Z,14.17
2019-04-06T23:04:59.277Z,15.53
2019-04-06T23:07:32.596Z,14.67
2019-04-06T23:09:59.932Z,13.33
2019-04-06T23:12:29.036Z,14.50
2019-04-06T23:14:59.158Z,13.60
2019-04-06T23:17:27.379Z,13.20
2019-04-06T23:19:54.636Z,13.53
2019-04-06T23:22:21.779Z,13.57
2019-04-06T23:24:51.420Z,12.97
2019-04-06T23:27:35.398Z,13.70
2019-04-06T23:30:10.568Z,13.60
2019-04-06T23:32:41.012Z,13.33
2019-04-06T23:35:08.199Z,14.20
2019-04-06T23:37:35.476Z,14.87
2019-04-06T23:40:02.632Z,13.73
2019-04-06T23:42:32.633Z,14.07
2019-04-06T23:45:05.026Z,14.17
2019-04-06T23:47:40.002Z,14.57
2019-04-06T23:50:09.391Z,14.00
2019-04-06T23:52:36.479Z,14.20
2019-04-06T23:55:03.720Z,13.87
2019-04-06T23:57:33.236Z,14.37
